Statsraad Lehmkuhl — LDRG — position and weather

sailwx.info

Track history (hours):
 
Tides and Currents Weather Stations Pressure Air Temp Water Temp Dewpoint Dewpoint Depression Visibility Wind Speed Wind Dir Waves Ship Positions

Statsraad Lehmkuhl (Norway)

Ship's website: http://www.lehmkuhl.no/eng/index.cfm

Last reported at 2017-May-28 07:59 UTC. Time now 2017-May-28 08:23 UTC.
Position N 60°24' E 005°19'.

Length 85 m; draft 5.2 m.

Type: Sailing vessel. MMSI: 258113000.

Date/timePositionNaut miles runAvg speedWind from/ knotsBaromVisibWave heightAir tempDewpointWater temp
2017-May-28 07:59N 60°24' E 005°19'1 1.6
2017-May-28 07:30N 60°24' E 005°18'2 3.9
2017-May-28 07:00N 60°24' E 005°14'2 4.2
2017-May-28 06:30N 60°23' E 005°10'2 3.7
2017-May-28 06:01N 60°24' E 005°07'2 4.1
2017-May-28 05:30N 60°25' E 005°03'2 4.3
2017-May-28 05:00N 60°27' E 005°01'2 4.2
2017-May-28 04:30N 60°29' E 004°59'2 4.0
2017-May-28 04:00N 60°31' E 004°58'2 4.2
2017-May-28 03:30N 60°33' E 004°56'2 4.7
2017-May-28 03:00N 60°35' E 004°54'2 4.6
2017-May-28 02:30N 60°37' E 004°53'3 5.0
2017-May-28 02:00N 60°39' E 004°51'2 4.6
2017-May-28 01:30N 60°41' E 004°49'2 4.6
2017-May-28 00:59N 60°44' E 004°47'3 6.6
2017-May-28 00:30N 60°47' E 004°45'3 6.0
2017-May-28 00:00N 60°49' E 004°42'3 5.9
2017-May-27 23:30N 60°52' E 004°40'3 5.3
2017-May-27 23:00N 60°55' E 004°40'2 4.8
2017-May-27 22:30N 60°57' E 004°41'2 5.0
2017-May-27 22:00N 60°59' E 004°45'2 4.8
2017-May-27 21:30N 61°00' E 004°48'2 5.0
2017-May-27 21:00N 61°02' E 004°53'3 5.2
2017-May-27 20:29N 61°03' E 004°57'3 5.6
2017-May-27 20:00N 61°05' E 005°01'2 4.9
2017-May-27 19:30N 61°08' E 005°02'4 7.2
2017-May-27 19:00N 61°11' E 005°01'3 5.3
2017-May-27 18:30N 61°13' E 004°57'3 5.7
2017-May-27 18:00N 61°15' E 004°53'3 6.4
2017-May-27 17:30N 61°17' E 004°48'3 6.4
2017-May-27 17:00N 61°20' E 004°43'3 5.2
2017-May-27 16:30N 61°22' E 004°42'3 5.2
2017-May-27 16:00N 61°23' E 004°36'3 6.0
2017-May-27 15:30N 61°21' E 004°31'3 5.8
2017-May-27 14:59N 61°19' E 004°27'5 5.5
2017-May-27 14:00N 61°14' E 004°23'3 6.3
2017-May-27 13:30N 61°11' E 004°21'4 6.8
2017-May-27 13:00N 61°07' E 004°20'4 7.1
2017-May-27 12:30N 61°04' E 004°18'4 8.8
2017-May-27 12:00N 60°60' E 004°16'  
2017-May-23 23:47N 60°03' E 004°32'2 7.0
2017-May-23 23:30N 60°04' E 004°36'4 7.3
2017-May-23 23:00N 60°05' E 004°42'4 7.9
2017-May-23 22:30N 60°07' E 004°50'4 8.0
2017-May-23 22:00N 60°08' E 004°57'4 8.1
2017-May-23 21:30N 60°10' E 005°05'4 7.6
2017-May-23 21:00N 60°12' E 005°11'4 7.8
2017-May-23 20:30N 60°16' E 005°09'4 7.9
2017-May-23 20:00N 60°20' E 005°09'4 7.4
2017-May-23 19:30N 60°23' E 005°11'4 7.4
2017-May-23 19:00N 60°24' E 005°18'0 0.8
2017-May-23 18:28N 60°24' E 005°19'0 0.0
2017-May-23 17:58N 60°24' E 005°19'0 0.0
2017-May-23 17:29N 60°24' E 005°19'0 0.0
2017-May-23 16:59N 60°24' E 005°19'0 0.0
2017-May-23 16:29N 60°24' E 005°19'0 0.0
2017-May-23 15:59N 60°24' E 005°19'0 0.0
2017-May-23 15:30N 60°24' E 005°19'0 0.0
2017-May-23 15:00N 60°24' E 005°19'0 0.0
2017-May-23 14:30N 60°24' E 005°19'0 0.0
2017-May-23 13:28N 60°24' E 005°19'0 0.0
2017-May-23 12:59N 60°24' E 005°19'0 0.0
2017-May-23 12:29N 60°24' E 005°19'0 0.0
2017-May-23 11:59N 60°24' E 005°19'0 0.0
2017-May-23 11:30N 60°24' E 005°19'0 0.0
2017-May-23 11:00N 60°24' E 005°19'0 0.0
2017-May-23 10:30N 60°24' E 005°19'0 0.0
2017-May-23 10:01N 60°24' E 005°19'0 0.0
2017-May-23 09:28N 60°24' E 005°19'0 0.0
2017-May-23 08:58N 60°24' E 005°19'0 0.0
2017-May-23 08:29N 60°24' E 005°19'0 0.0
2017-May-23 07:59N 60°24' E 005°19'0 0.0
2017-May-23 07:29N 60°24' E 005°19'0 0.0
2017-May-23 07:00N 60°24' E 005°19'0 0.0
2017-May-23 06:30N 60°24' E 005°19'0 0.0
2017-May-23 06:00N 60°24' E 005°19'0 0.0
2017-May-23 05:28N 60°24' E 005°19'0 0.0
2017-May-23 04:58N 60°24' E 005°19'0 0.0
2017-May-23 04:28N 60°24' E 005°19'0 0.0
2017-May-23 03:59N 60°24' E 005°19'0 0.0
2017-May-23 03:29N 60°24' E 005°19'0 0.0
2017-May-23 02:59N 60°24' E 005°19'0 0.0
2017-May-23 02:30N 60°24' E 005°19'0 0.0
2017-May-23 02:00N 60°24' E 005°19'0 0.0
2017-May-23 01:30N 60°24' E 005°19'0 0.0
2017-May-23 00:58N 60°24' E 005°19'0 0.0
2017-May-23 00:28N 60°24' E 005°19'0 0.0
2017-May-22 23:58N 60°24' E 005°19'0 0.0
2017-May-22 23:29N 60°24' E 005°19'0 0.0
2017-May-22 22:59N 60°24' E 005°19'0 0.0
2017-May-22 22:29N 60°24' E 005°19'0 0.0
2017-May-22 22:00N 60°24' E 005°19'0 0.0
2017-May-22 21:30N 60°24' E 005°19'0 0.0
2017-May-22 21:00N 60°24' E 005°19'0 0.0
2017-May-22 20:28N 60°24' E 005°19'0 0.0
2017-May-22 19:58N 60°24' E 005°19'0 0.0
2017-May-22 19:28N 60°24' E 005°19'0 0.0
2017-May-22 18:59N 60°24' E 005°19'0 0.0
2017-May-22 18:29N 60°24' E 005°19'0 0.0
2017-May-22 17:59N 60°24' E 005°19'0 0.0
2017-May-22 17:30N 60°24' E 005°19'0 0.0
2017-May-22 17:00N 60°24' E 005°19'0 0.0
2017-May-22 16:30N 60°24' E 005°19'0 0.0
2017-May-22 15:58N 60°24' E 005°19'0 0.0
2017-May-22 15:28N 60°24' E 005°19'0 0.0
2017-May-22 14:58N 60°24' E 005°19'0 0.0
2017-May-22 13:59N 60°24' E 005°19'0 0.0
2017-May-22 13:29N 60°24' E 005°19'0 0.0
2017-May-22 13:00N 60°24' E 005°19'0 0.0
2017-May-22 12:30N 60°24' E 005°19'0 0.0
2017-May-22 12:00N 60°24' E 005°19'0 0.0
2017-May-22 11:28N 60°24' E 005°19'0 0.0
2017-May-22 10:58N 60°24' E 005°19'0 0.0
2017-May-22 10:28N 60°24' E 005°19'0 0.0
2017-May-22 09:59N 60°24' E 005°19'0 0.0
2017-May-22 09:29N 60°24' E 005°19'0 0.0
2017-May-22 08:59N 60°24' E 005°19'0 0.0
2017-May-22 08:30N 60°24' E 005°19'0 0.0
2017-May-22 08:00N 60°24' E 005°19'0 0.0
2017-May-22 07:30N 60°24' E 005°19'0 0.0
2017-May-22 06:58N 60°24' E 005°19'0 0.0
2017-May-22 06:28N 60°24' E 005°19'0 0.0
2017-May-22 05:58N 60°24' E 005°19'0 0.0
2017-May-22 05:29N 60°24' E 005°19'0 0.0
2017-May-22 04:59N 60°24' E 005°19'0 0.0
2017-May-22 04:29N 60°24' E 005°19'0 0.0
2017-May-22 03:57N 60°24' E 005°19'0 0.0
2017-May-22 03:30N 60°24' E 005°19'0 0.0
2017-May-22 03:00N 60°24' E 005°19'0 0.0
2017-May-22 02:28N 60°24' E 005°19'0 0.0
2017-May-22 01:58N 60°24' E 005°19'0 0.0
2017-May-22 01:28N 60°24' E 005°19'0 0.0
2017-May-22 00:59N 60°24' E 005°19'0 0.0
2017-May-22 00:29N 60°24' E 005°19'0 0.0
2017-May-21 23:59N 60°24' E 005°19'0 0.0
2017-May-21 23:30N 60°24' E 005°19'0 0.0
2017-May-21 23:00N 60°24' E 005°19'0 0.0
2017-May-21 22:27N 60°24' E 005°19'0 0.0
2017-May-21 21:58N 60°24' E 005°19'0 0.0
2017-May-21 21:28N 60°24' E 005°19'0 0.0
2017-May-21 20:58N 60°24' E 005°19'0 0.0
2017-May-21 20:29N 60°24' E 005°19'0 0.0
2017-May-21 19:59N 60°24' E 005°19'0 0.0
2017-May-21 19:29N 60°24' E 005°19'0 0.0
2017-May-21 19:00N 60°24' E 005°19'0 0.0
2017-May-21 18:30N 60°24' E 005°19'0 0.0
2017-May-21 18:00N 60°24' E 005°19'0 0.0
2017-May-21 17:28N 60°24' E 005°19'0 0.0
2017-May-21 16:58N 60°24' E 005°19'0 0.0
2017-May-21 16:28N 60°24' E 005°19'0 0.0
2017-May-21 15:59N 60°24' E 005°19'0 0.0
2017-May-21 15:29N 60°24' E 005°19'0 0.0
2017-May-21 14:59N 60°24' E 005°19'0 0.0
2017-May-21 14:00N 60°24' E 005°19'0 0.0
2017-May-21 13:30N 60°24' E 005°19'0 0.0
2017-May-21 12:58N 60°24' E 005°19'0 0.0
2017-May-21 12:25N 60°24' E 005°19'0 0.0
2017-May-21 12:01N 60°24' E 005°19'1 2.2
2017-May-21 11:30N 60°24' E 005°17'3 6.7
2017-May-21 11:00N 60°23' E 005°11'2 4.5
2017-May-21 10:30N 60°25' E 005°08'2 4.5
2017-May-21 10:00N 60°24' E 005°12'3 6.3
2017-May-21 09:30N 60°24' E 005°18'0 0.9
2017-May-21 08:58N 60°24' E 005°19'0 0.0
2017-May-21 08:28N 60°24' E 005°19'0 0.0
2017-May-21 08:00N 60°24' E 005°19'0 0.0
2017-May-21 07:30N 60°24' E 005°19'0 0.0
2017-May-21 07:00N 60°24' E 005°19'0 0.0
2017-May-21 06:30N 60°24' E 005°19'0 0.0
2017-May-21 06:00N 60°24' E 005°19'0 0.0
2017-May-21 05:30N 60°24' E 005°19'0 0.0
2017-May-21 05:00N 60°24' E 005°19'0 0.0
2017-May-21 04:30N 60°24' E 005°19'0 0.0
2017-May-21 04:00N 60°24' E 005°19'0 0.0
2017-May-21 03:30N 60°24' E 005°19'0 0.0
2017-May-21 03:00N 60°24' E 005°19'0 0.0
2017-May-21 02:30N 60°24' E 005°19'0 0.0
2017-May-21 02:00N 60°24' E 005°19'0 0.0
2017-May-21 01:30N 60°24' E 005°19'0 0.0
2017-May-21 01:00N 60°24' E 005°19'0 0.0
2017-May-21 00:30N 60°24' E 005°19'0 0.0
2017-May-21 00:00N 60°24' E 005°19'0 0.0
2017-May-20 23:30N 60°24' E 005°19'0 0.0
2017-May-20 23:00N 60°24' E 005°19'0 0.0
2017-May-20 22:30N 60°24' E 005°19'0 0.0
2017-May-20 22:00N 60°24' E 005°19'0 0.0
2017-May-20 21:30N 60°24' E 005°19'0 0.0
2017-May-20 21:00N 60°24' E 005°19'0 0.0
2017-May-20 20:30N 60°24' E 005°19'0 0.0
2017-May-20 20:00N 60°24' E 005°19'1 1.1
2017-May-20 19:30N 60°24' E 005°18'1 2.2
2017-May-20 19:00N 60°25' E 005°17'1 1.5
2017-May-20 18:29N 60°26' E 005°17'1 1.4
2017-May-20 18:00N 60°27' E 005°16'1 1.5
2017-May-20 17:30N 60°27' E 005°16'1 1.9
2017-May-20 17:00N 60°26' E 005°16'1 2.2
2017-May-20 16:30N 60°25' E 005°17'2 3.1
2017-May-20 16:00N 60°24' E 005°19'0 0.4
2017-May-20 15:28N 60°24' E 005°19'0 0.0
2017-May-20 14:59N 60°24' E 005°19'0 0.0
2017-May-20 13:56N 60°24' E 005°19'0 0.0
2017-May-20 13:30N 60°24' E 005°19'0 0.0
2017-May-20 13:00N 60°24' E 005°19'0 0.0
2017-May-20 12:30N 60°24' E 005°19'0 0.0
2017-May-20 11:58N 60°24' E 005°19'0 0.0
2017-May-20 11:28N 60°24' E 005°19'0 0.0
2017-May-20 10:58N 60°24' E 005°19'0 0.0
2017-May-20 10:29N 60°24' E 005°19'0 0.0
2017-May-20 09:59N 60°24' E 005°19'0 0.0
2017-May-20 09:29N 60°24' E 005°19'0 0.0
2017-May-20 09:00N 60°24' E 005°19'0 0.0
2017-May-20 08:30N 60°24' E 005°19'0 0.0
2017-May-20 08:00N 60°24' E 005°19'0 0.0
2017-May-20 07:28N 60°24' E 005°19'0 0.0
2017-May-20 06:58N 60°24' E 005°19'0 0.0
2017-May-20 06:28N 60°24' E 005°19'0 0.0
2017-May-20 05:59N 60°24' E 005°19'0 0.0
2017-May-20 05:29N 60°24' E 005°19'0 0.0
2017-May-20 04:59N 60°24' E 005°19'0 0.0
2017-May-20 04:30N 60°24' E 005°19'0 0.0
2017-May-20 04:00N 60°24' E 005°19'0 0.0
2017-May-20 03:30N 60°24' E 005°19'0 0.0
2017-May-20 02:58N 60°24' E 005°19'0 0.0
2017-May-20 02:28N 60°24' E 005°19'0 0.0
2017-May-20 01:58N 60°24' E 005°19'0 0.0
2017-May-20 01:29N 60°24' E 005°19'0 0.0
2017-May-20 00:59N 60°24' E 005°19'0 0.0
2017-May-20 00:29N 60°24' E 005°19'0 0.0
2017-May-20 00:00N 60°24' E 005°19'0 0.0
2017-May-19 23:30N 60°24' E 005°19'0 0.0
2017-May-19 23:00N 60°24' E 005°19'0 0.0
2017-May-19 22:28N 60°24' E 005°19'0 0.0
2017-May-19 21:58N 60°24' E 005°19'0 0.0
2017-May-19 21:28N 60°24' E 005°19'0 0.0
2017-May-19 20:59N 60°24' E 005°19'0 0.0
2017-May-19 20:29N 60°24' E 005°19'0 0.0
2017-May-19 20:00N 60°24' E 005°19'1 1.9
2017-May-19 19:30N 60°24' E 005°17'2 3.6
2017-May-19 19:00N 60°24' E 005°14'2 3.8
2017-May-19 18:30N 60°23' E 005°10'2 4.6
2017-May-19 18:00N 60°24' E 005°07'2 3.1
2017-May-19 17:30N 60°26' E 005°05'2 4.3
2017-May-19 17:00N 60°24' E 005°09'2 4.2
2017-May-19 16:30N 60°24' E 005°13'3 5.0
2017-May-19 16:00N 60°24' E 005°18'1 1.7
2017-May-19 15:30N 60°24' E 005°19'0 0.0
2017-May-19 14:59N 60°24' E 005°19'0 0.0
2017-May-19 14:29N 60°24' E 005°19'0 0.0
2017-May-19 13:30N 60°24' E 005°19'0 0.0
2017-May-19 13:00N 60°24' E 005°19'0 0.0
2017-May-19 12:28N 60°24' E 005°19'0 0.0
2017-May-19 11:58N 60°24' E 005°19'0 0.0
2017-May-19 11:28N 60°24' E 005°19'0 0.0
2017-May-19 10:59N 60°24' E 005°19'0 0.0
2017-May-19 10:29N 60°24' E 005°19'0 0.0
2017-May-19 09:59N 60°24' E 005°19'0 0.0
2017-May-19 09:30N 60°24' E 005°19'0 0.0
2017-May-19 09:00N 60°24' E 005°19'0 0.0
2017-May-19 08:30N 60°24' E 005°19'0 0.0
2017-May-19 08:00N 60°24' E 005°19'0 0.0
2017-May-19 07:30N 60°24' E 005°19'0 0.0
2017-May-19 07:00N 60°24' E 005°19'0 0.0
2017-May-19 06:30N 60°24' E 005°19'0 0.0
2017-May-19 06:00N 60°24' E 005°19'0 0.0
2017-May-19 05:30N 60°24' E 005°19'0 0.0
2017-May-19 05:00N 60°24' E 005°19'0 0.0
2017-May-19 04:30N 60°24' E 005°19'0 0.0
2017-May-19 04:01N 60°24' E 005°19'0 0.0
2017-May-19 03:30N 60°24' E 005°19'0 0.0
2017-May-19 03:00N 60°24' E 005°19'0 0.0
2017-May-19 02:30N 60°24' E 005°19'0 0.0
2017-May-19 02:00N 60°24' E 005°19'0 0.0
2017-May-19 01:30N 60°24' E 005°19'0 0.0
2017-May-19 01:00N 60°24' E 005°19'0 0.0
2017-May-19 00:30N 60°24' E 005°19'0 0.0
2017-May-19 00:00N 60°24' E 005°19'0 0.0
2017-May-18 23:30N 60°24' E 005°19'0 0.0
2017-May-18 23:00N 60°24' E 005°19'0 0.0
2017-May-18 22:30N 60°24' E 005°19'0 0.0
2017-May-18 22:00N 60°24' E 005°19'0 0.0
2017-May-18 21:30N 60°24' E 005°19'0 0.0
2017-May-18 21:00N 60°24' E 005°19'0 0.0
2017-May-18 20:30N 60°24' E 005°19'0 0.3
2017-May-18 20:00N 60°24' E 005°19'4 7.3
2017-May-18 19:30N 60°23' E 005°11'4 7.5
2017-May-18 18:59N 60°19' E 005°12'4 8.5
2017-May-18 18:30N 60°15' E 005°10'4 7.9
2017-May-18 18:00N 60°12' E 005°13'4 8.6
2017-May-18 17:30N 60°08' E 005°18'4 7.8
2017-May-18 17:00N 60°07' E 005°26'4 8.2
2017-May-18 16:30N 60°11' E 005°29'0 0.1
2017-May-18 16:00N 60°11' E 005°29'1 1.5
2017-May-18 15:30N 60°11' E 005°29'4 8.5
2017-May-18 15:00N 60°07' E 005°25'10 9.9
2017-May-18 14:00N 60°13' E 005°10'510.4
2017-May-18 13:30N 60°19' E 005°08'5 8.8
2017-May-18 13:00N 60°23' E 005°10'4 8.6
2017-May-18 12:30N 60°24' E 005°19'0 0.6
2017-May-18 12:01N 60°24' E 005°19'0 0.0
2017-May-18 11:28N 60°24' E 005°19'0 0.0
2017-May-18 10:55N 60°24' E 005°19'0 0.0
2017-May-18 10:29N 60°24' E 005°19'0 0.0
2017-May-18 09:59N 60°24' E 005°19'0 0.0
2017-May-18 09:29N 60°24' E 005°19'0 0.0
2017-May-18 09:00N 60°24' E 005°19'0 0.0
2017-May-18 08:30N 60°24' E 005°19'0 0.0
2017-May-18 08:00N 60°24' E 005°19'  
Track history (hours):
 
Tides and Currents Weather Stations Pressure Air Temp Water Temp Dewpoint Dewpoint Depression Visibility Wind Speed Wind Dir Waves Ship Positions

Statsraad Lehmkuhl (Norway)

Ship's website: http://www.lehmkuhl.no/eng/index.cfm

Last reported at 2017-May-28 07:59 UTC. Time now 2017-May-28 08:23 UTC.
Position N 60°24' E 005°19'.

Length 85 m; draft 5.2 m.

Type: Sailing vessel. MMSI: 258113000.

Date/timePositionNaut miles runAvg speedWind from/ knotsBaromVisibWave heightAir tempDewpointWater temp
2017-May-28 07:59N 60°24' E 005°19'1 1.6
2017-May-28 07:30N 60°24' E 005°18'2 3.9
2017-May-28 07:00N 60°24' E 005°14'2 4.2
2017-May-28 06:30N 60°23' E 005°10'2 3.7
2017-May-28 06:01N 60°24' E 005°07'2 4.1
2017-May-28 05:30N 60°25' E 005°03'2 4.3
2017-May-28 05:00N 60°27' E 005°01'2 4.2
2017-May-28 04:30N 60°29' E 004°59'2 4.0
2017-May-28 04:00N 60°31' E 004°58'2 4.2
2017-May-28 03:30N 60°33' E 004°56'2 4.7
2017-May-28 03:00N 60°35' E 004°54'2 4.6
2017-May-28 02:30N 60°37' E 004°53'3 5.0
2017-May-28 02:00N 60°39' E 004°51'2 4.6
2017-May-28 01:30N 60°41' E 004°49'2 4.6
2017-May-28 00:59N 60°44' E 004°47'3 6.6
2017-May-28 00:30N 60°47' E 004°45'3 6.0
2017-May-28 00:00N 60°49' E 004°42'3 5.9
2017-May-27 23:30N 60°52' E 004°40'3 5.3
2017-May-27 23:00N 60°55' E 004°40'2 4.8
2017-May-27 22:30N 60°57' E 004°41'2 5.0
2017-May-27 22:00N 60°59' E 004°45'2 4.8
2017-May-27 21:30N 61°00' E 004°48'2 5.0
2017-May-27 21:00N 61°02' E 004°53'3 5.2
2017-May-27 20:29N 61°03' E 004°57'3 5.6
2017-May-27 20:00N 61°05' E 005°01'2 4.9
2017-May-27 19:30N 61°08' E 005°02'4 7.2
2017-May-27 19:00N 61°11' E 005°01'3 5.3
2017-May-27 18:30N 61°13' E 004°57'3 5.7
2017-May-27 18:00N 61°15' E 004°53'3 6.4
2017-May-27 17:30N 61°17' E 004°48'3 6.4
2017-May-27 17:00N 61°20' E 004°43'3 5.2
2017-May-27 16:30N 61°22' E 004°42'3 5.2
2017-May-27 16:00N 61°23' E 004°36'3 6.0
2017-May-27 15:30N 61°21' E 004°31'3 5.8
2017-May-27 14:59N 61°19' E 004°27'5 5.5
2017-May-27 14:00N 61°14' E 004°23'3 6.3
2017-May-27 13:30N 61°11' E 004°21'4 6.8
2017-May-27 13:00N 61°07' E 004°20'4 7.1
2017-May-27 12:30N 61°04' E 004°18'4 8.8
2017-May-27 12:00N 60°60' E 004°16'  
2017-May-23 23:47N 60°03' E 004°32'2 7.0
2017-May-23 23:30N 60°04' E 004°36'4 7.3
2017-May-23 23:00N 60°05' E 004°42'4 7.9
2017-May-23 22:30N 60°07' E 004°50'4 8.0
2017-May-23 22:00N 60°08' E 004°57'4 8.1
2017-May-23 21:30N 60°10' E 005°05'4 7.6
2017-May-23 21:00N 60°12' E 005°11'4 7.8
2017-May-23 20:30N 60°16' E 005°09'4 7.9
2017-May-23 20:00N 60°20' E 005°09'4 7.4
2017-May-23 19:30N 60°23' E 005°11'4 7.4
2017-May-23 19:00N 60°24' E 005°18'0 0.8
2017-May-23 18:28N 60°24' E 005°19'0 0.0
2017-May-23 17:58N 60°24' E 005°19'0 0.0
2017-May-23 17:29N 60°24' E 005°19'0 0.0
2017-May-23 16:59N 60°24' E 005°19'0 0.0
2017-May-23 16:29N 60°24' E 005°19'0 0.0
2017-May-23 15:59N 60°24' E 005°19'0 0.0
2017-May-23 15:30N 60°24' E 005°19'0 0.0
2017-May-23 15:00N 60°24' E 005°19'0 0.0
2017-May-23 14:30N 60°24' E 005°19'0 0.0
2017-May-23 13:28N 60°24' E 005°19'0 0.0
2017-May-23 12:59N 60°24' E 005°19'0 0.0
2017-May-23 12:29N 60°24' E 005°19'0 0.0
2017-May-23 11:59N 60°24' E 005°19'0 0.0
2017-May-23 11:30N 60°24' E 005°19'0 0.0
2017-May-23 11:00N 60°24' E 005°19'0 0.0
2017-May-23 10:30N 60°24' E 005°19'0 0.0
2017-May-23 10:01N 60°24' E 005°19'0 0.0
2017-May-23 09:28N 60°24' E 005°19'0 0.0
2017-May-23 08:58N 60°24' E 005°19'0 0.0
2017-May-23 08:29N 60°24' E 005°19'0 0.0
2017-May-23 07:59N 60°24' E 005°19'0 0.0
2017-May-23 07:29N 60°24' E 005°19'0 0.0
2017-May-23 07:00N 60°24' E 005°19'0 0.0
2017-May-23 06:30N 60°24' E 005°19'0 0.0
2017-May-23 06:00N 60°24' E 005°19'0 0.0
2017-May-23 05:28N 60°24' E 005°19'0 0.0
2017-May-23 04:58N 60°24' E 005°19'0 0.0
2017-May-23 04:28N 60°24' E 005°19'0 0.0
2017-May-23 03:59N 60°24' E 005°19'0 0.0
2017-May-23 03:29N 60°24' E 005°19'0 0.0
2017-May-23 02:59N 60°24' E 005°19'0 0.0
2017-May-23 02:30N 60°24' E 005°19'0 0.0
2017-May-23 02:00N 60°24' E 005°19'0 0.0
2017-May-23 01:30N 60°24' E 005°19'0 0.0
2017-May-23 00:58N 60°24' E 005°19'0 0.0
2017-May-23 00:28N 60°24' E 005°19'0 0.0
2017-May-22 23:58N 60°24' E 005°19'0 0.0
2017-May-22 23:29N 60°24' E 005°19'0 0.0
2017-May-22 22:59N 60°24' E 005°19'0 0.0
2017-May-22 22:29N 60°24' E 005°19'0 0.0
2017-May-22 22:00N 60°24' E 005°19'0 0.0
2017-May-22 21:30N 60°24' E 005°19'0 0.0
2017-May-22 21:00N 60°24' E 005°19'0 0.0
2017-May-22 20:28N 60°24' E 005°19'0 0.0
2017-May-22 19:58N 60°24' E 005°19'0 0.0
2017-May-22 19:28N 60°24' E 005°19'0 0.0
2017-May-22 18:59N 60°24' E 005°19'0 0.0
2017-May-22 18:29N 60°24' E 005°19'0 0.0
2017-May-22 17:59N 60°24' E 005°19'0 0.0
2017-May-22 17:30N 60°24' E 005°19'0 0.0
2017-May-22 17:00N 60°24' E 005°19'0 0.0
2017-May-22 16:30N 60°24' E 005°19'0 0.0
2017-May-22 15:58N 60°24' E 005°19'0 0.0
2017-May-22 15:28N 60°24' E 005°19'0 0.0
2017-May-22 14:58N 60°24' E 005°19'0 0.0
2017-May-22 13:59N 60°24' E 005°19'0 0.0
2017-May-22 13:29N 60°24' E 005°19'0 0.0
2017-May-22 13:00N 60°24' E 005°19'0 0.0
2017-May-22 12:30N 60°24' E 005°19'0 0.0
2017-May-22 12:00N 60°24' E 005°19'0 0.0
2017-May-22 11:28N 60°24' E 005°19'0 0.0
2017-May-22 10:58N 60°24' E 005°19'0 0.0
2017-May-22 10:28N 60°24' E 005°19'0 0.0
2017-May-22 09:59N 60°24' E 005°19'0 0.0
2017-May-22 09:29N 60°24' E 005°19'0 0.0
2017-May-22 08:59N 60°24' E 005°19'0 0.0
2017-May-22 08:30N 60°24' E 005°19'0 0.0
2017-May-22 08:00N 60°24' E 005°19'0 0.0
2017-May-22 07:30N 60°24' E 005°19'0 0.0
2017-May-22 06:58N 60°24' E 005°19'0 0.0
2017-May-22 06:28N 60°24' E 005°19'0 0.0
2017-May-22 05:58N 60°24' E 005°19'0 0.0
2017-May-22 05:29N 60°24' E 005°19'0 0.0
2017-May-22 04:59N 60°24' E 005°19'0 0.0
2017-May-22 04:29N 60°24' E 005°19'0 0.0
2017-May-22 03:57N 60°24' E 005°19'0 0.0
2017-May-22 03:30N 60°24' E 005°19'0 0.0
2017-May-22 03:00N 60°24' E 005°19'0 0.0
2017-May-22 02:28N 60°24' E 005°19'0 0.0
2017-May-22 01:58N 60°24' E 005°19'0 0.0
2017-May-22 01:28N 60°24' E 005°19'0 0.0
2017-May-22 00:59N 60°24' E 005°19'0 0.0
2017-May-22 00:29N 60°24' E 005°19'0 0.0
2017-May-21 23:59N 60°24' E 005°19'0 0.0
2017-May-21 23:30N 60°24' E 005°19'0 0.0
2017-May-21 23:00N 60°24' E 005°19'0 0.0
2017-May-21 22:27N 60°24' E 005°19'0 0.0
2017-May-21 21:58N 60°24' E 005°19'0 0.0
2017-May-21 21:28N 60°24' E 005°19'0 0.0
2017-May-21 20:58N 60°24' E 005°19'0 0.0
2017-May-21 20:29N 60°24' E 005°19'0 0.0
2017-May-21 19:59N 60°24' E 005°19'0 0.0
2017-May-21 19:29N 60°24' E 005°19'0 0.0
2017-May-21 19:00N 60°24' E 005°19'0 0.0
2017-May-21 18:30N 60°24' E 005°19'0 0.0
2017-May-21 18:00N 60°24' E 005°19'0 0.0
2017-May-21 17:28N 60°24' E 005°19'0 0.0
2017-May-21 16:58N 60°24' E 005°19'0 0.0
2017-May-21 16:28N 60°24' E 005°19'0 0.0
2017-May-21 15:59N 60°24' E 005°19'0 0.0
2017-May-21 15:29N 60°24' E 005°19'0 0.0
2017-May-21 14:59N 60°24' E 005°19'0 0.0
2017-May-21 14:00N 60°24' E 005°19'0 0.0
2017-May-21 13:30N 60°24' E 005°19'0 0.0
2017-May-21 12:58N 60°24' E 005°19'0 0.0
2017-May-21 12:25N 60°24' E 005°19'0 0.0
2017-May-21 12:01N 60°24' E 005°19'1 2.2
2017-May-21 11:30N 60°24' E 005°17'3 6.7
2017-May-21 11:00N 60°23' E 005°11'2 4.5
2017-May-21 10:30N 60°25' E 005°08'2 4.5
2017-May-21 10:00N 60°24' E 005°12'3 6.3
2017-May-21 09:30N 60°24' E 005°18'0 0.9
2017-May-21 08:58N 60°24' E 005°19'0 0.0
2017-May-21 08:28N 60°24' E 005°19'0 0.0
2017-May-21 08:00N 60°24' E 005°19'0 0.0
2017-May-21 07:30N 60°24' E 005°19'0 0.0
2017-May-21 07:00N 60°24' E 005°19'0 0.0
2017-May-21 06:30N 60°24' E 005°19'0 0.0
2017-May-21 06:00N 60°24' E 005°19'0 0.0
2017-May-21 05:30N 60°24' E 005°19'0 0.0
2017-May-21 05:00N 60°24' E 005°19'0 0.0
2017-May-21 04:30N 60°24' E 005°19'0 0.0
2017-May-21 04:00N 60°24' E 005°19'0 0.0
2017-May-21 03:30N 60°24' E 005°19'0 0.0
2017-May-21 03:00N 60°24' E 005°19'0 0.0
2017-May-21 02:30N 60°24' E 005°19'0 0.0
2017-May-21 02:00N 60°24' E 005°19'0 0.0
2017-May-21 01:30N 60°24' E 005°19'0 0.0
2017-May-21 01:00N 60°24' E 005°19'0 0.0
2017-May-21 00:30N 60°24' E 005°19'0 0.0
2017-May-21 00:00N 60°24' E 005°19'0 0.0
2017-May-20 23:30N 60°24' E 005°19'0 0.0
2017-May-20 23:00N 60°24' E 005°19'0 0.0
2017-May-20 22:30N 60°24' E 005°19'0 0.0
2017-May-20 22:00N 60°24' E 005°19'0 0.0
2017-May-20 21:30N 60°24' E 005°19'0 0.0
2017-May-20 21:00N 60°24' E 005°19'0 0.0
2017-May-20 20:30N 60°24' E 005°19'0 0.0
2017-May-20 20:00N 60°24' E 005°19'1 1.1
2017-May-20 19:30N 60°24' E 005°18'1 2.2
2017-May-20 19:00N 60°25' E 005°17'1 1.5
2017-May-20 18:29N 60°26' E 005°17'1 1.4
2017-May-20 18:00N 60°27' E 005°16'1 1.5
2017-May-20 17:30N 60°27' E 005°16'1 1.9
2017-May-20 17:00N 60°26' E 005°16'1 2.2
2017-May-20 16:30N 60°25' E 005°17'2 3.1
2017-May-20 16:00N 60°24' E 005°19'0 0.4
2017-May-20 15:28N 60°24' E 005°19'0 0.0
2017-May-20 14:59N 60°24' E 005°19'0 0.0
2017-May-20 13:56N 60°24' E 005°19'0 0.0
2017-May-20 13:30N 60°24' E 005°19'0 0.0
2017-May-20 13:00N 60°24' E 005°19'0 0.0
2017-May-20 12:30N 60°24' E 005°19'0 0.0
2017-May-20 11:58N 60°24' E 005°19'0 0.0
2017-May-20 11:28N 60°24' E 005°19'0 0.0
2017-May-20 10:58N 60°24' E 005°19'0 0.0
2017-May-20 10:29N 60°24' E 005°19'0 0.0
2017-May-20 09:59N 60°24' E 005°19'0 0.0
2017-May-20 09:29N 60°24' E 005°19'0 0.0
2017-May-20 09:00N 60°24' E 005°19'0 0.0
2017-May-20 08:30N 60°24' E 005°19'0 0.0
2017-May-20 08:00N 60°24' E 005°19'0 0.0
2017-May-20 07:28N 60°24' E 005°19'0 0.0
2017-May-20 06:58N 60°24' E 005°19'0 0.0
2017-May-20 06:28N 60°24' E 005°19'0 0.0
2017-May-20 05:59N 60°24' E 005°19'0 0.0
2017-May-20 05:29N 60°24' E 005°19'0 0.0
2017-May-20 04:59N 60°24' E 005°19'0 0.0
2017-May-20 04:30N 60°24' E 005°19'0 0.0
2017-May-20 04:00N 60°24' E 005°19'0 0.0
2017-May-20 03:30N 60°24' E 005°19'0 0.0
2017-May-20 02:58N 60°24' E 005°19'0 0.0
2017-May-20 02:28N 60°24' E 005°19'0 0.0
2017-May-20 01:58N 60°24' E 005°19'0 0.0
2017-May-20 01:29N 60°24' E 005°19'0 0.0
2017-May-20 00:59N 60°24' E 005°19'0 0.0
2017-May-20 00:29N 60°24' E 005°19'0 0.0
2017-May-20 00:00N 60°24' E 005°19'0 0.0
2017-May-19 23:30N 60°24' E 005°19'0 0.0
2017-May-19 23:00N 60°24' E 005°19'0 0.0
2017-May-19 22:28N 60°24' E 005°19'0 0.0
2017-May-19 21:58N 60°24' E 005°19'0 0.0
2017-May-19 21:28N 60°24' E 005°19'0 0.0
2017-May-19 20:59N 60°24' E 005°19'0 0.0
2017-May-19 20:29N 60°24' E 005°19'0 0.0
2017-May-19 20:00N 60°24' E 005°19'1 1.9
2017-May-19 19:30N 60°24' E 005°17'2 3.6
2017-May-19 19:00N 60°24' E 005°14'2 3.8
2017-May-19 18:30N 60°23' E 005°10'2 4.6
2017-May-19 18:00N 60°24' E 005°07'2 3.1
2017-May-19 17:30N 60°26' E 005°05'2 4.3
2017-May-19 17:00N 60°24' E 005°09'2 4.2
2017-May-19 16:30N 60°24' E 005°13'3 5.0
2017-May-19 16:00N 60°24' E 005°18'1 1.7
2017-May-19 15:30N 60°24' E 005°19'0 0.0
2017-May-19 14:59N 60°24' E 005°19'0 0.0
2017-May-19 14:29N 60°24' E 005°19'0 0.0
2017-May-19 13:30N 60°24' E 005°19'0 0.0
2017-May-19 13:00N 60°24' E 005°19'0 0.0
2017-May-19 12:28N 60°24' E 005°19'0 0.0
2017-May-19 11:58N 60°24' E 005°19'0 0.0
2017-May-19 11:28N 60°24' E 005°19'0 0.0
2017-May-19 10:59N 60°24' E 005°19'0 0.0
2017-May-19 10:29N 60°24' E 005°19'0 0.0
2017-May-19 09:59N 60°24' E 005°19'0 0.0
2017-May-19 09:30N 60°24' E 005°19'0 0.0
2017-May-19 09:00N 60°24' E 005°19'0 0.0
2017-May-19 08:30N 60°24' E 005°19'0 0.0
2017-May-19 08:00N 60°24' E 005°19'0 0.0
2017-May-19 07:30N 60°24' E 005°19'0 0.0
2017-May-19 07:00N 60°24' E 005°19'0 0.0
2017-May-19 06:30N 60°24' E 005°19'0 0.0
2017-May-19 06:00N 60°24' E 005°19'0 0.0
2017-May-19 05:30N 60°24' E 005°19'0 0.0
2017-May-19 05:00N 60°24' E 005°19'0 0.0
2017-May-19 04:30N 60°24' E 005°19'0 0.0
2017-May-19 04:01N 60°24' E 005°19'0 0.0
2017-May-19 03:30N 60°24' E 005°19'0 0.0
2017-May-19 03:00N 60°24' E 005°19'0 0.0
2017-May-19 02:30N 60°24' E 005°19'0 0.0
2017-May-19 02:00N 60°24' E 005°19'0 0.0
2017-May-19 01:30N 60°24' E 005°19'0 0.0
2017-May-19 01:00N 60°24' E 005°19'0 0.0
2017-May-19 00:30N 60°24' E 005°19'0 0.0
2017-May-19 00:00N 60°24' E 005°19'0 0.0
2017-May-18 23:30N 60°24' E 005°19'0 0.0
2017-May-18 23:00N 60°24' E 005°19'0 0.0
2017-May-18 22:30N 60°24' E 005°19'0 0.0
2017-May-18 22:00N 60°24' E 005°19'0 0.0
2017-May-18 21:30N 60°24' E 005°19'0 0.0
2017-May-18 21:00N 60°24' E 005°19'0 0.0
2017-May-18 20:30N 60°24' E 005°19'0 0.3
2017-May-18 20:00N 60°24' E 005°19'4 7.3
2017-May-18 19:30N 60°23' E 005°11'4 7.5
2017-May-18 18:59N 60°19' E 005°12'4 8.5
2017-May-18 18:30N 60°15' E 005°10'4 7.9
2017-May-18 18:00N 60°12' E 005°13'4 8.6
2017-May-18 17:30N 60°08' E 005°18'4 7.8
2017-May-18 17:00N 60°07' E 005°26'4 8.2
2017-May-18 16:30N 60°11' E 005°29'0 0.1
2017-May-18 16:00N 60°11' E 005°29'1 1.5
2017-May-18 15:30N 60°11' E 005°29'4 8.5
2017-May-18 15:00N 60°07' E 005°25'10 9.9
2017-May-18 14:00N 60°13' E 005°10'510.4
2017-May-18 13:30N 60°19' E 005°08'5 8.8
2017-May-18 13:00N 60°23' E 005°10'4 8.6
2017-May-18 12:30N 60°24' E 005°19'0 0.6
2017-May-18 12:01N 60°24' E 005°19'0 0.0
2017-May-18 11:28N 60°24' E 005°19'0 0.0
2017-May-18 10:55N 60°24' E 005°19'0 0.0
2017-May-18 10:29N 60°24' E 005°19'0 0.0
2017-May-18 09:59N 60°24' E 005°19'0 0.0
2017-May-18 09:29N 60°24' E 005°19'0 0.0
2017-May-18 09:00N 60°24' E 005°19'0 0.0
2017-May-18 08:30N 60°24' E 005°19'0 0.0
2017-May-18 08:00N 60°24' E 005°19'  

Dump ship's entire track history